Aérodrome :







RETROUVEZ-NOUS SUR...

 
LOGIN :

S'inscrire | Disclaimer

   EN    FR    IT 

 









Légende :    VFR   VFR Marginal   IFR   IFR Intensif   IFR Très Intensif
Visi : 
Plafond : 
>= 8 km
>= 3000ft
5 à 8 km
1000 à 3000 ft
1500m à 5 km
500 à 1000 ft
800 à 1500m
200 à 500 ft
< 800m
< 200 ft
Symboles :   Orages  Brouillard  Fortes neiges  Fortes précipitations  Vent > 20 kt






- Altitude de l'aérodrome : 21 ft
- Code IATA : YVM


CYVM - Qikiqtarjuac

DERNIER METAR :
  • 171600Z 20011KT 10SM -SG FEW015 OVC020 M22/M25 A2984 RMK SC1SC8 SC TR SLP107

METARs EXPIRÉS :
  • 171500Z 19012KT 10SM -SG FEW015 OVC020 M22/M24 A2983 RMK SC1SC7 SLP105
  • 171400Z 19010KT 10SM IC OVC018 M22/M25 A2983 RMK SC8 SLP104

TAF TAF CYVM
Valide du 17 à 13h jusqu'au 18 à 01h UTC


171240Z 1713/1801 20012KT 5SM IC OVC015
TEMPO 1713/1716 P6SM NSW OVC025
FM171600 20005KT P6SM FEW020 SCT070
TEMPO 1716/1801 5SM IC BKN020 RMK FCST BASED ON AUTO OBS. NXT FCST BY 171900Z



MET'MAP, la Météo Aéronautique d'un coup d'oeil ! - Copyright ORBIFLY Décembre 2007 - Disclaimer

ORBIFLY MET'MAP TEAM :

Programmation & Développement : Alexandra Zaïnal
Sur une idée originale de : Baudouin d'Aumeries
Assistance à la programmation : Marc-Olivier Méhu
Soutien technique & logistique : Manuel Goepfert

Contact : metmap@orbifly.com




SOURCES & CREDITS :

   NOAA